createdAt,value
2023-05-06T00:00:06.758Z,0.089
2023-05-06T00:01:07.372Z,0.098
2023-05-06T00:02:06.573Z,0.107
2023-05-06T00:03:07.702Z,0.107
2023-05-06T00:04:08.827Z,0.116
2023-05-06T00:05:07.515Z,0.116
2023-05-06T00:06:06.777Z,0.107
2023-05-06T00:07:07.248Z,0.107
2023-05-06T00:09:06.883Z,0.107
2023-05-06T00:10:07.058Z,0.107
2023-05-06T00:11:06.203Z,0.116
2023-05-06T00:12:06.371Z,0.116
2023-05-06T00:13:06.930Z,0.107
2023-05-06T00:14:07.138Z,0.107
2023-05-06T00:15:06.419Z,0.107
2023-05-06T00:16:06.810Z,0.107
2023-05-06T00:17:10.106Z,0.125
2023-05-06T00:18:06.813Z,0.125
2023-05-06T00:19:07.029Z,0.116
2023-05-06T00:20:06.226Z,0.107
2023-05-06T00:21:06.391Z,0.116
2023-05-06T00:22:06.640Z,0.107
2023-05-06T00:23:06.861Z,0.107
2023-05-06T00:24:07.078Z,0.098
2023-05-06T00:25:06.307Z,0.107
2023-05-06T00:26:06.542Z,0.098
2023-05-06T00:27:06.864Z,0.125
2023-05-06T00:28:07.080Z,0.107
2023-05-06T00:29:06.223Z,0.107
2023-05-06T00:30:06.497Z,0.116
2023-05-06T00:31:06.731Z,0.089
2023-05-06T00:32:07.833Z,0.098
2023-05-06T00:33:07.450Z,0.098
2023-05-06T00:36:07.053Z,0.116
2023-05-06T00:37:06.195Z,0.116
2023-05-06T00:38:06.377Z,0.116
2023-05-06T00:39:06.605Z,0.116
2023-05-06T00:40:06.781Z,0.116
2023-05-06T00:41:07.005Z,0.116
2023-05-06T00:43:06.512Z,0.116
2023-05-06T00:44:06.708Z,0.116
2023-05-06T00:45:07.157Z,0.116
2023-05-06T00:46:06.896Z,0.107
2023-05-06T00:47:10.100Z,0.107
2023-05-06T00:48:06.719Z,0.098
2023-05-06T00:49:06.934Z,0.098
2023-05-06T00:50:07.163Z,0.089
2023-05-06T00:51:06.283Z,0.089
2023-05-06T00:52:06.467Z,0.089
2023-05-06T00:53:06.674Z,0.089
2023-05-06T00:54:06.918Z,0.089
2023-05-06T00:55:07.264Z,0.089
2023-05-06T00:56:06.563Z,0.089
2023-05-06T00:57:06.814Z,0.080
2023-05-06T00:58:06.980Z,0.080
2023-05-06T00:59:06.127Z,0.089
2023-05-06T01:00:06.329Z,0.089
2023-05-06T01:01:06.855Z,0.080
2023-05-06T01:02:07.297Z,0.080
2023-05-06T01:03:07.263Z,0.080
2023-05-06T01:04:07.607Z,0.080
2023-05-06T01:05:07.566Z,0.080
2023-05-06T01:06:06.954Z,0.080
2023-05-06T01:07:07.109Z,0.089
2023-05-06T01:08:06.362Z,0.089
2023-05-06T01:09:06.522Z,0.098
2023-05-06T01:10:06.755Z,0.107
2023-05-06T01:11:06.986Z,0.107
2023-05-06T01:12:06.133Z,0.107
2023-05-06T01:13:06.652Z,0.116
2023-05-06T01:14:06.997Z,0.116
2023-05-06T01:15:06.468Z,0.116
2023-05-06T01:16:06.881Z,0.116
2023-05-06T01:17:10.797Z,0.116
2023-05-06T01:18:07.304Z,0.116
2023-05-06T01:19:06.430Z,0.107
2023-05-06T01:20:06.631Z,0.107
2023-05-06T01:21:06.801Z,0.098
2023-05-06T01:22:07.357Z,0.098
2023-05-06T01:23:06.609Z,0.098
2023-05-06T01:24:07.477Z,0.107
2023-05-06T01:25:06.743Z,0.107
2023-05-06T01:26:07.104Z,0.107
2023-05-06T01:27:06.369Z,0.107
2023-05-06T01:28:06.533Z,0.107
2023-05-06T01:29:06.866Z,0.098
2023-05-06T01:30:07.142Z,0.098
2023-05-06T01:31:06.724Z,0.098
2023-05-06T01:32:06.943Z,0.098
2023-05-06T01:33:07.469Z,0.098
2023-05-06T01:34:06.792Z,0.098
2023-05-06T01:35:07.290Z,0.098
2023-05-06T01:36:06.582Z,0.098
2023-05-06T01:37:06.774Z,0.098
2023-05-06T01:38:06.929Z,0.098
2023-05-06T01:39:07.170Z,0.098
2023-05-06T01:40:06.551Z,0.098
2023-05-06T01:41:06.769Z,0.098
2023-05-06T01:42:07.070Z,0.098
2023-05-06T01:43:06.379Z,0.098
2023-05-06T01:44:06.562Z,0.098
2023-05-06T01:45:06.905Z,0.098
2023-05-06T01:46:06.541Z,0.089
2023-05-06T01:47:10.044Z,0.089
2023-05-06T01:48:06.534Z,0.080
2023-05-06T01:49:06.781Z,0.071
2023-05-06T01:50:06.955Z,0.062
2023-05-06T01:51:07.162Z,0.054
2023-05-06T01:52:06.314Z,0.054
2023-05-06T01:53:06.581Z,0.054
2023-05-06T01:54:06.772Z,0.054
2023-05-06T01:55:07.210Z,0.054
2023-05-06T01:56:06.635Z,0.054
2023-05-06T01:57:06.885Z,0.054
2023-05-06T01:58:07.053Z,0.054
2023-05-06T01:59:08.415Z,0.054
2023-05-06T02:00:06.596Z,0.054
2023-05-06T02:01:06.713Z,0.071
2023-05-06T02:02:08.021Z,0.080
2023-05-06T02:03:06.707Z,0.089
2023-05-06T02:04:08.335Z,0.107
2023-05-06T02:06:06.990Z,0.125
2023-05-06T02:07:06.163Z,0.125
2023-05-06T02:08:06.568Z,0.125
2023-05-06T02:09:06.800Z,0.116
2023-05-06T02:10:07.009Z,0.107
2023-05-06T02:11:06.125Z,0.098
2023-05-06T02:12:06.338Z,0.116
2023-05-06T02:13:07.081Z,0.125
2023-05-06T02:14:06.227Z,0.125
2023-05-06T02:15:06.420Z,0.134
2023-05-06T02:16:07.073Z,0.152
2023-05-06T02:17:09.312Z,0.143
2023-05-06T02:18:06.575Z,0.143
2023-05-06T02:19:06.798Z,0.152
2023-05-06T02:20:07.056Z,0.161
2023-05-06T02:21:06.226Z,0.161
2023-05-06T02:22:06.468Z,0.161
2023-05-06T02:23:06.664Z,0.187
2023-05-06T02:24:06.892Z,0.196
2023-05-06T02:25:07.463Z,0.187
2023-05-06T02:26:06.845Z,0.196
2023-05-06T02:27:07.197Z,0.196
2023-05-06T02:28:06.419Z,0.205
2023-05-06T02:29:06.599Z,0.205
2023-05-06T02:30:06.812Z,0.205
2023-05-06T02:31:07.100Z,0.205
2023-05-06T02:32:06.689Z,0.205
2023-05-06T02:33:07.158Z,0.232
2023-05-06T02:34:06.281Z,0.241
2023-05-06T02:35:06.755Z,0.250
2023-05-06T02:36:07.185Z,0.268
2023-05-06T02:37:06.606Z,0.268
2023-05-06T02:38:06.785Z,0.276
2023-05-06T02:39:06.968Z,0.276
2023-05-06T02:40:07.216Z,0.268
2023-05-06T02:41:06.491Z,0.259
2023-05-06T02:42:06.650Z,0.259
2023-05-06T02:43:07.140Z,0.250
2023-05-06T02:44:06.358Z,0.241
2023-05-06T02:45:06.630Z,0.232
2023-05-06T02:46:07.259Z,0.250
2023-05-06T02:47:09.534Z,0.259
2023-05-06T02:48:06.850Z,0.268
2023-05-06T02:49:07.191Z,0.268
2023-05-06T02:50:06.362Z,0.276
2023-05-06T02:51:06.670Z,0.276
2023-05-06T02:52:06.926Z,0.268
2023-05-06T02:53:07.104Z,0.268
2023-05-06T02:54:06.278Z,0.259
2023-05-06T02:55:06.502Z,0.259
2023-05-06T02:56:06.815Z,0.276
2023-05-06T02:57:07.002Z,0.294
2023-05-06T02:58:06.232Z,0.321
2023-05-06T02:59:06.490Z,0.339
2023-05-06T03:00:06.793Z,0.366
2023-05-06T03:01:07.195Z,0.401
2023-05-06T03:02:06.389Z,0.428
2023-05-06T03:03:07.002Z,0.464
2023-05-06T03:04:06.526Z,0.490
2023-05-06T03:05:06.837Z,0.544
2023-05-06T03:06:07.051Z,0.606
2023-05-06T03:07:06.314Z,0.687
2023-05-06T03:08:06.560Z,0.785
2023-05-06T03:09:06.811Z,0.910
2023-05-06T03:10:07.054Z,1.070
2023-05-06T03:11:07.992Z,1.257
2023-05-06T03:12:06.502Z,1.498
2023-05-06T03:13:07.225Z,1.765
2023-05-06T03:14:06.465Z,2.051
2023-05-06T03:15:06.867Z,2.363
2023-05-06T03:16:07.114Z,2.737
2023-05-06T03:17:09.661Z,3.344
2023-05-06T03:18:07.017Z,4.030
2023-05-06T03:20:06.526Z,5.172
2023-05-06T03:21:06.979Z,5.858
2023-05-06T03:22:06.266Z,6.652
2023-05-06T03:23:06.446Z,7.419
2023-05-06T03:24:06.690Z,8.756
2023-05-06T03:25:07.010Z,10.299
2023-05-06T03:27:06.451Z,14.356
2023-05-06T03:28:06.617Z,16.995
2023-05-06T03:29:06.892Z,20.187
2023-05-06T03:30:07.110Z,23.799
2023-05-06T03:32:07.224Z,31.003
2023-05-06T03:33:06.800Z,34.418
2023-05-06T03:34:07.059Z,38.957
2023-05-06T03:35:06.197Z,43.148
2023-05-06T03:36:06.336Z,47.686
2023-05-06T03:37:06.527Z,54.499
2023-05-06T03:38:06.751Z,62.069
2023-05-06T03:39:06.981Z,72.198
2023-05-06T03:40:06.164Z,83.745
2023-05-06T03:41:06.268Z,97.049
2023-05-06T03:42:09.194Z,110.397
2023-05-06T03:43:06.993Z,125.449
2023-05-06T03:44:06.191Z,140.090
2023-05-06T03:45:06.416Z,156.710
2023-05-06T03:46:06.868Z,173.670
2023-05-06T03:47:10.102Z,191.227
2023-05-06T03:48:07.971Z,212.591
2023-05-06T03:49:06.151Z,236.729
2023-05-06T03:50:06.365Z,262.881
2023-05-06T03:51:06.638Z,287.250
2023-05-06T03:52:06.912Z,308.320
2023-05-06T03:53:07.129Z,331.022
2023-05-06T03:54:06.604Z,360.786
2023-05-06T03:55:06.961Z,401.348
2023-05-06T03:56:06.189Z,447.554
2023-05-06T03:57:06.499Z,499.057
2023-05-06T03:58:06.680Z,533.502
2023-05-06T03:59:06.907Z,592.406
2023-05-06T04:00:07.177Z,659.976
2023-05-06T04:01:06.348Z,737.497
2023-05-06T04:02:07.075Z,822.402
2023-05-06T04:03:06.652Z,912.763
2023-05-06T04:04:07.413Z,1006.977
2023-05-06T04:05:06.741Z,1111.623
2023-05-06T04:06:06.872Z,1218.837
2023-05-06T04:07:07.065Z,1315.619
2023-05-06T04:08:06.223Z,1417.375
2023-05-06T04:09:06.535Z,1521.540
2023-05-06T04:11:06.998Z,1719.918
2023-05-06T04:12:06.338Z,1814.934
2023-05-06T04:13:07.116Z,1911.555
2023-05-06T04:14:06.392Z,2015.238
2023-05-06T04:15:06.694Z,2117.798
2023-05-06T04:16:07.029Z,2211.048
2023-05-06T04:17:09.317Z,2316.497
2023-05-06T04:18:06.819Z,2450.835
2023-05-06T04:19:10.315Z,2594.964
2023-05-06T04:21:06.651Z,2843.739
2023-05-06T04:22:06.861Z,2956.731
2023-05-06T04:23:07.140Z,3051.265
2023-05-06T04:24:06.652Z,3170.517
2023-05-06T04:25:06.942Z,3306.621
2023-05-06T04:26:07.400Z,3391.525
2023-05-06T04:27:06.651Z,3483.973
2023-05-06T04:28:06.869Z,3600.015
2023-05-06T04:29:07.330Z,3762.602
2023-05-06T04:31:06.678Z,4173.963
2023-05-06T04:32:08.037Z,4411.824
2023-05-06T04:33:06.591Z,4642.944
2023-05-06T04:34:06.870Z,4943.239
2023-05-06T04:35:07.184Z,5299.229
2023-05-06T04:36:06.419Z,5604.820
2023-05-06T04:37:06.665Z,5924.697
2023-05-06T04:38:07.193Z,6350.664
2023-05-06T04:39:06.436Z,6521.917
2023-05-06T04:40:06.685Z,6477.138
2023-05-06T04:41:06.897Z,6552.733
2023-05-06T04:42:07.192Z,6600.723
2023-05-06T04:43:06.433Z,6135.434
2023-05-06T04:44:06.611Z,5728.566
2023-05-06T04:45:06.835Z,5646.229
2023-05-06T04:46:07.546Z,5487.014
2023-05-06T04:47:09.712Z,5511.730
2023-05-06T04:48:07.107Z,5551.695
2023-05-06T04:51:06.677Z,6283.575
2023-05-06T04:52:06.796Z,6692.369
2023-05-06T04:53:06.977Z,7020.912
2023-05-06T04:54:06.151Z,7339.344
2023-05-06T04:55:06.296Z,7771.089
2023-05-06T04:56:06.634Z,8163.512
2023-05-06T04:57:06.825Z,8910.960
2023-05-06T04:58:07.010Z,10311.804
2023-05-06T04:59:06.150Z,10067.844
2023-05-06T05:00:06.371Z,11389.722
2023-05-06T05:01:06.847Z,11337.399
2023-05-06T05:02:07.426Z,11179.788
2023-05-06T05:03:07.337Z,11184.442
2023-05-06T05:04:06.709Z,10965.681
2023-05-06T05:05:06.882Z,11653.744
2023-05-06T05:06:07.102Z,12712.563
2023-05-06T05:07:06.256Z,13337.550
2023-05-06T05:08:06.364Z,12728.773
2023-05-06T05:09:08.817Z,12351.117
2023-05-06T05:10:06.956Z,11763.205
2023-05-06T05:11:07.194Z,10896.987
2023-05-06T05:12:06.427Z,10351.608
2023-05-06T05:13:07.037Z,10460.106
2023-05-06T05:14:09.009Z,10879.172
2023-05-06T05:15:06.189Z,11668.671
2023-05-06T05:47:03.257Z,16341.468
2023-05-06T05:48:02.554Z,15054.258
2023-05-06T05:49:02.704Z,15163.880
2023-05-06T05:50:03.262Z,27099.301
2023-05-06T05:51:02.469Z,28970.410
2023-05-06T05:52:02.658Z,32303.836
2023-05-06T05:53:02.841Z,28066.475
2023-05-06T05:54:03.045Z,21068.514
2023-05-06T05:55:02.237Z,26437.721
2023-05-06T05:56:03.345Z,24622.947
2023-05-06T05:57:02.790Z,25870.031
2023-05-06T05:59:41.997Z,34470.266
2023-05-06T06:00:41.164Z,23531.707
2023-05-06T06:01:41.322Z,26860.959
2023-05-06T06:02:42.195Z,30312.191
2023-05-06T06:03:42.438Z,33436.164
2023-05-06T06:06:41.549Z,23283.734
2023-05-06T06:07:41.733Z,23859.770
2023-05-06T06:08:41.868Z,22533.559
2023-05-06T06:09:42.167Z,23379.072
2023-05-06T06:10:41.348Z,21597.361
2023-05-06T06:11:42.970Z,23543.264
2023-05-06T06:12:41.289Z,21168.184
2023-05-06T06:13:41.792Z,19872.146
2023-05-06T06:14:41.977Z,21858.174
2023-05-06T06:15:41.127Z,24292.156
2023-05-06T06:16:41.764Z,25137.189
2023-05-06T06:17:42.402Z,24960.639
2023-05-06T06:18:41.600Z,25870.994
2023-05-06T06:19:41.799Z,23641.008
2023-05-06T06:20:42.035Z,21722.230
2023-05-06T06:21:41.197Z,18727.141
2023-05-06T06:22:41.589Z,19302.533
2023-05-06T06:23:41.761Z,19579.555
2023-05-06T06:24:41.990Z,19268.346
2023-05-06T06:25:41.091Z,17032.260
2023-05-06T06:26:41.310Z,14642.736
2023-05-06T06:27:41.470Z,15163.398
2023-05-06T06:28:41.659Z,17852.254
2023-05-06T06:29:41.828Z,20503.072
2023-05-06T06:30:41.969Z,21284.227
2023-05-06T06:31:44.722Z,19836.355
2023-05-06T06:33:41.516Z,16414.496
2023-05-06T06:34:41.712Z,18130.723
2023-05-06T06:35:41.854Z,19401.721
2023-05-06T06:36:42.034Z,20165.059
2023-05-06T06:37:41.182Z,19515.516
2023-05-06T06:38:41.430Z,20196.838
2023-05-06T06:39:41.640Z,20172.764
2023-05-06T06:40:41.880Z,18833.391
2023-05-06T06:41:42.129Z,17733.004
2023-05-06T06:42:41.948Z,16431.027
2023-05-06T06:43:42.156Z,16490.252
2023-05-06T06:44:41.306Z,16017.900
2023-05-06T06:45:41.626Z,15802.670
2023-05-06T06:46:41.879Z,15401.420
2023-05-06T06:47:42.332Z,14988.132
2023-05-06T06:48:41.570Z,15703.641
2023-05-06T06:49:41.725Z,17487.117
2023-05-06T06:50:41.958Z,20615.744
2023-05-06T06:51:42.275Z,23484.520
2023-05-06T06:52:41.450Z,25098.670
2023-05-06T06:53:41.663Z,26549.750
2023-05-06T06:54:42.068Z,29054.352
2023-05-06T06:55:41.199Z,30938.943
2023-05-06T06:56:41.419Z,33682.211
2023-05-06T06:57:41.616Z,34215.230
2023-05-06T06:58:41.738Z,35111.461
2023-05-06T06:59:41.899Z,31757.492
2023-05-06T07:00:42.084Z,32493.225
2023-05-06T07:01:41.878Z,31435.209
2023-05-06T07:02:42.334Z,28942.162
2023-05-06T07:03:41.530Z,27963.113
2023-05-06T07:04:42.276Z,29081.957
2023-05-06T07:05:41.567Z,29104.107
2023-05-06T07:06:41.947Z,27205.232
2023-05-06T07:07:42.113Z,24571.105
2023-05-06T07:08:41.190Z,24597.428
2023-05-06T07:09:46.674Z,24883.600
2023-05-06T07:11:41.219Z,28789.205
2023-05-06T07:12:41.672Z,31359.773
2023-05-06T07:13:41.858Z,32996.230
2023-05-06T07:14:41.952Z,29266.854
2023-05-06T07:15:42.134Z,25832.957
2023-05-06T07:16:42.855Z,24552.326
2023-05-06T07:17:42.504Z,27149.859
2023-05-06T07:18:41.764Z,27270.074
2023-05-06T07:19:41.891Z,25182.771
2023-05-06T07:20:42.105Z,25580.330
2023-05-06T07:21:41.322Z,27816.736
2023-05-06T07:22:41.766Z,29278.090
2023-05-06T07:23:43.811Z,27969.693
2023-05-06T07:24:42.030Z,28942.322
2023-05-06T07:25:41.234Z,24549.117
2023-05-06T07:26:41.389Z,23319.045
2023-05-06T07:27:41.538Z,27951.074
2023-05-06T07:28:41.731Z,29060.771
2023-05-06T07:29:42.247Z,28554.074
2023-05-06T07:30:41.431Z,26815.859
2023-05-06T07:31:41.977Z,25577.119
2023-05-06T07:32:41.497Z,26999.150
2023-05-06T07:33:41.731Z,29751.725
2023-05-06T07:34:41.865Z,31187.557
2023-05-06T07:35:42.063Z,29973.375
2023-05-06T07:36:43.959Z,27272.000
2023-05-06T07:38:41.416Z,26777.498
2023-05-06T07:39:41.591Z,28153.145
2023-05-06T07:40:41.784Z,31355.279
2023-05-06T07:41:42.019Z,31815.434
2023-05-06T07:42:43.005Z,31610.797
2023-05-06T07:43:41.484Z,30868.002
2023-05-06T07:44:41.664Z,30826.594
2023-05-06T07:45:41.898Z,33395.879
2023-05-06T07:46:43.317Z,35198.934
2023-05-06T07:47:42.351Z,40939.379
2023-05-06T07:49:41.275Z,61479.203
2023-05-06T07:50:41.830Z,35559.098
2023-05-06T07:51:41.978Z,32116.051
2023-05-06T07:52:41.134Z,35140.191
2023-05-06T07:53:41.266Z,39350.910
2023-05-06T07:54:41.484Z,42088.398
2023-05-06T07:55:44.220Z,53958.816
2023-05-06T07:56:41.343Z,54548.172
2023-05-06T07:57:41.507Z,51485.031
2023-05-06T07:58:41.678Z,53976.953
2023-05-06T07:59:41.879Z,52650.098
2023-05-06T08:00:42.085Z,44391.090
2023-05-06T08:01:41.396Z,45232.754
2023-05-06T08:02:42.316Z,71646.719
2023-05-06T08:03:42.721Z,41009.355
2023-05-06T08:04:42.720Z,38371.215
2023-05-06T08:05:42.105Z,39700.797
2023-05-06T08:06:41.288Z,42781.758
2023-05-06T08:07:41.444Z,48176.484
2023-05-06T08:08:41.629Z,52811.402
2023-05-06T08:09:41.826Z,94397.430
2023-05-06T08:10:42.971Z,52458.141
2023-05-06T08:11:42.147Z,45453.117
2023-05-06T08:12:41.505Z,49065.812
2023-05-06T08:13:41.631Z,47460.012
2023-05-06T08:14:41.817Z,42768.434
2023-05-06T08:15:41.973Z,67166.359
2023-05-06T08:16:42.592Z,46800.516
2023-05-06T08:17:42.125Z,41137.434
2023-05-06T08:18:41.380Z,40065.453
2023-05-06T08:19:41.503Z,42018.418
2023-05-06T08:20:41.740Z,39925.016
2023-05-06T08:21:41.836Z,37474.984
2023-05-06T08:22:42.125Z,35649.457
2023-05-06T08:24:41.434Z,40123.234
2023-05-06T08:25:41.621Z,50113.559
2023-05-06T08:26:41.822Z,106671.352
2023-05-06T08:27:41.964Z,62785.512
2023-05-06T08:28:42.114Z,58404.664
2023-05-06T08:29:43.092Z,89160.797
2023-05-06T08:32:41.738Z,104949.828
2023-05-06T08:33:41.933Z,94485.391
2023-05-06T08:34:42.765Z,93207.969
2023-05-06T08:35:41.911Z,100524.359
2023-05-06T08:36:42.056Z,104009.133
2023-05-06T08:37:41.338Z,92953.898
2023-05-06T08:38:42.678Z,71542.070
2023-05-06T08:39:42.737Z,100999.117
2023-05-06T08:40:43.139Z,104503.797
2023-05-06T08:41:42.893Z,100305.438
2023-05-06T08:42:42.993Z,63982.844
2023-05-06T08:43:41.226Z,44734.238
2023-05-06T08:44:43.255Z,46612.090
2023-05-06T08:45:45.219Z,49696.898
2023-05-06T08:46:42.631Z,55033.043
2023-05-06T08:47:42.085Z,109918.422
2023-05-06T08:48:41.512Z,114976.906
2023-05-06T08:49:42.620Z,85381.984
2023-05-06T08:50:42.761Z,120269.875
2023-05-06T08:51:42.819Z,59999.555
2023-05-06T08:52:42.935Z,109758.242
2023-05-06T08:53:43.000Z,101045.664
2023-05-06T08:54:42.057Z,84743.359
2023-05-06T08:55:41.283Z,41176.758
2023-05-06T08:56:41.497Z,40587.883
2023-05-06T08:57:41.692Z,57537.004
2023-05-06T08:58:41.925Z,41143.855
2023-05-06T08:59:42.211Z,41508.188
2023-05-06T09:00:42.659Z,39145.469
2023-05-06T09:01:43.217Z,40027.738
2023-05-06T09:02:46.682Z,43038.719
2023-05-06T09:04:42.960Z,99939.820
2023-05-06T09:05:43.041Z,98512.328
2023-05-06T09:06:41.226Z,102563.195
2023-05-06T09:07:41.519Z,101009.711
2023-05-06T09:08:41.793Z,115961.414
2023-05-06T09:09:42.026Z,112435.062
2023-05-06T09:10:41.552Z,68012.836
2023-05-06T09:11:42.498Z,75419.750
2023-05-06T09:12:41.946Z,32495.150
2023-05-06T09:13:42.123Z,28898.186
2023-05-06T09:14:41.908Z,29732.785
2023-05-06T09:15:43.007Z,30469.480
2023-05-06T09:16:41.474Z,30752.764
2023-05-06T09:17:42.144Z,32859.969
2023-05-06T09:18:41.684Z,32736.543
2023-05-06T09:19:42.059Z,35558.773
2023-05-06T09:20:41.557Z,31739.357
2023-05-06T09:21:42.562Z,31370.527
2023-05-06T09:22:42.812Z,31801.791
2023-05-06T09:25:42.038Z,35100.707
2023-05-06T09:26:43.317Z,38844.691
2023-05-06T09:27:41.560Z,44551.590
2023-05-06T09:28:41.753Z,67380.789
2023-05-06T09:29:41.949Z,72918.523
2023-05-06T09:30:42.181Z,104276.211
2023-05-06T09:31:43.032Z,102060.023
2023-05-06T09:32:46.663Z,102179.117
2023-05-06T09:35:42.053Z,87611.492
2023-05-06T09:36:41.921Z,77818.102
2023-05-06T09:37:43.096Z,95731.672
2023-05-06T09:38:41.735Z,35313.852
2023-05-06T09:39:41.966Z,30221.508
2023-05-06T09:40:42.107Z,27973.225
2023-05-06T09:41:41.380Z,27653.188
2023-05-06T09:42:42.506Z,28318.299
2023-05-06T09:43:42.621Z,30754.047
2023-05-06T09:44:42.678Z,34286.492
2023-05-06T09:45:42.798Z,38026.461
2023-05-06T09:46:43.427Z,42686.742
2023-05-06T09:47:43.372Z,65278.078
2023-05-06T09:48:43.002Z,55683.387
2023-05-06T09:49:43.120Z,54849.910
2023-05-06T09:50:41.325Z,54100.379
2023-05-06T09:51:42.363Z,141400.172
2023-05-06T09:52:42.387Z,142555.297
2023-05-06T09:53:42.432Z,140288.875
2023-05-06T09:54:42.532Z,130527.586
2023-05-06T09:55:42.597Z,125498.484
2023-05-06T09:56:42.659Z,97711.438
2023-05-06T09:57:42.781Z,33118.051
2023-05-06T09:58:43.011Z,32847.449
2023-05-06T09:59:41.594Z,32539.930
2023-05-06T10:00:42.998Z,34983.062
2023-05-06T10:01:46.857Z,38087.133
2023-05-06T10:02:42.652Z,41569.180
2023-05-06T10:03:43.301Z,44299.766
2023-05-06T10:04:43.265Z,117225.992
2023-05-06T10:06:42.048Z,45100.980
2023-05-06T10:07:41.668Z,46322.707
2023-05-06T10:08:42.734Z,55300.434
2023-05-06T10:09:42.913Z,147208.188
2023-05-06T10:10:42.925Z,145521.984
2023-05-06T10:11:43.383Z,149085.234
2023-05-06T10:12:43.400Z,143597.422
2023-05-06T10:13:41.622Z,143924.359
2023-05-06T10:14:41.801Z,144484.031
2023-05-06T10:15:42.017Z,57573.598
2023-05-06T10:16:41.973Z,134217.156
2023-05-06T10:17:42.102Z,68230.477
2023-05-06T10:18:42.742Z,47792.246
2023-05-06T10:19:42.801Z,36096.449
2023-05-06T10:20:42.887Z,35214.180
2023-05-06T10:21:43.015Z,36525.145
2023-05-06T10:22:41.690Z,113778.609
2023-05-06T10:23:41.965Z,93804.227
2023-05-06T10:24:42.232Z,38023.414
2023-05-06T10:25:41.786Z,36748.723
2023-05-06T10:26:42.022Z,40109.594
2023-05-06T10:27:41.162Z,40576.809
2023-05-06T10:28:46.784Z,102044.453
2023-05-06T10:29:42.018Z,95049.867
2023-05-06T10:30:41.114Z,110157.570
2023-05-06T10:31:41.692Z,95860.070
2023-05-06T10:32:42.275Z,128769.953
2023-05-06T10:33:42.448Z,84628.922
2023-05-06T10:34:41.866Z,124451.539
2023-05-06T10:35:42.089Z,52899.355
2023-05-06T10:36:41.312Z,46652.055
2023-05-06T10:37:41.433Z,44519.008
2023-05-06T10:38:41.757Z,44962.953
2023-05-06T10:39:44.719Z,49495.953
2023-05-06T10:40:41.827Z,98782.133
2023-05-06T10:41:42.034Z,109937.688
2023-05-06T10:42:41.187Z,115899.133
2023-05-06T10:43:41.348Z,122161.367
2023-05-06T10:44:41.600Z,125452.258
2023-05-06T10:45:42.081Z,125332.688
2023-05-06T10:46:41.332Z,122673.844
2023-05-06T10:47:41.725Z,113716.336
2023-05-06T10:48:41.939Z,125438.773
2023-05-06T10:49:42.302Z,130209.320
2023-05-06T10:50:41.426Z,130729.500
2023-05-06T10:51:41.696Z,126337.734
2023-05-06T10:52:41.885Z,116684.461
2023-05-06T10:53:42.086Z,117325.180
2023-05-06T10:54:41.226Z,112462.031
2023-05-06T10:55:41.664Z,116192.047
2023-05-06T10:56:41.912Z,115959.969
2023-05-06T10:57:42.630Z,116640.328
2023-05-06T10:58:41.774Z,124346.570
2023-05-06T10:59:42.013Z,138673.125
2023-05-06T11:00:41.226Z,124626.969
2023-05-06T11:01:42.071Z,81445.562
2023-05-06T11:02:42.067Z,46019.203
2023-05-06T11:03:41.676Z,43069.371
2023-05-06T11:04:41.824Z,43068.891
2023-05-06T11:05:41.962Z,48470.680
2023-05-06T11:06:42.235Z,57971.316
2023-05-06T11:07:41.370Z,103623.133
2023-05-06T11:08:41.559Z,104064.992
2023-05-06T11:09:41.695Z,111230.672
2023-05-06T11:10:41.911Z,115367.883
2023-05-06T11:11:42.166Z,116710.945
2023-05-06T11:12:41.480Z,119403.336
2023-05-06T11:13:42.029Z,123240.570
2023-05-06T11:14:41.197Z,130126.977
2023-05-06T11:15:41.434Z,132821.938
2023-05-06T11:16:45.196Z,133349.656
2023-05-06T11:17:41.665Z,128438.523
2023-05-06T11:18:41.943Z,131030.273
2023-05-06T11:19:42.195Z,133875.625
2023-05-06T11:20:41.362Z,131359.938
2023-05-06T11:21:41.625Z,131202.656
2023-05-06T11:22:41.751Z,129986.062
2023-05-06T11:23:41.903Z,135602.281
2023-05-06T11:24:42.195Z,137205.828
2023-05-06T11:25:41.403Z,115377.508
2023-05-06T11:26:41.698Z,125892.828
2023-05-06T11:27:41.869Z,123248.750
2023-05-06T11:28:42.046Z,132055.062
2023-05-06T11:29:41.175Z,137645.609
2023-05-06T11:30:41.467Z,135258.812
2023-05-06T11:31:42.150Z,131285.797
2023-05-06T11:32:41.552Z,128263.414
2023-05-06T11:33:41.748Z,131694.750
2023-05-06T11:34:42.017Z,117777.789
2023-05-06T11:35:41.213Z,105204.859
2023-05-06T11:36:41.416Z,106632.352
2023-05-06T11:37:42.146Z,133117.734
2023-05-06T11:39:47.769Z,130303.852
2023-05-06T11:40:42.226Z,140995.234
2023-05-06T11:42:41.580Z,81457.602
2023-05-06T11:43:41.740Z,93188.547
2023-05-06T11:44:41.892Z,143038.406
2023-05-06T11:45:42.085Z,139170.188
2023-05-06T11:46:41.528Z,150280.641
2023-05-06T11:47:42.202Z,153251.172
2023-05-06T11:48:41.445Z,149314.281
2023-05-06T11:49:43.491Z,148060.453
2023-05-06T11:50:41.584Z,154648.656
2023-05-06T11:51:41.817Z,155064.188
2023-05-06T11:52:42.063Z,148436.016
2023-05-06T11:53:41.243Z,147222.484
2023-05-06T11:54:41.409Z,146768.094
2023-05-06T11:55:41.807Z,136473.469
2023-05-06T11:56:41.953Z,129249.688
2023-05-06T11:57:42.332Z,77515.242
2023-05-06T11:58:41.659Z,40468.148
2023-05-06T11:59:41.882Z,41107.902
2023-05-06T12:00:42.061Z,39477.223
2023-05-06T12:02:42.026Z,35358.633
2023-05-06T12:03:42.820Z,34286.012
2023-05-06T12:04:42.812Z,68544.734
2023-05-06T12:05:41.985Z,34239.945
2023-05-06T12:06:41.112Z,53357.742
2023-05-06T12:07:41.274Z,153621.766
2023-05-06T12:08:44.023Z,57746.457
2023-05-06T12:09:41.376Z,45807.020
2023-05-06T12:10:41.561Z,149223.109
2023-05-06T12:11:44.297Z,157226.922
2023-05-06T12:12:42.446Z,64053.465
2023-05-06T12:13:41.733Z,138783.062
2023-05-06T12:14:41.956Z,150658.781
2023-05-06T12:15:42.185Z,150797.781
2023-05-06T12:16:41.797Z,152032.984
2023-05-06T12:17:42.274Z,151095.656
2023-05-06T12:18:41.485Z,142167.844
2023-05-06T12:19:41.605Z,137558.609
2023-05-06T12:20:42.068Z,140616.453
2023-05-06T12:22:42.093Z,35503.883
2023-05-06T12:23:41.942Z,41671.418
2023-05-06T12:24:41.119Z,126907.992
2023-05-06T12:25:41.253Z,137506.453
2023-05-06T12:26:41.418Z,57266.078
2023-05-06T12:27:41.571Z,54715.895
2023-05-06T12:28:41.827Z,27156.439
2023-05-06T12:29:42.038Z,24453.779
2023-05-06T12:30:41.167Z,23789.471
2023-05-06T12:31:41.726Z,23006.551
2023-05-06T12:32:42.344Z,22916.992
2023-05-06T12:33:41.462Z,22798.543
2023-05-06T12:34:41.630Z,23363.021
2023-05-06T12:35:41.888Z,24238.549
2023-05-06T12:36:42.068Z,25306.998
2023-05-06T12:37:41.222Z,27200.096
2023-05-06T12:38:41.402Z,31651.562
2023-05-06T12:39:41.825Z,35367.941
2023-05-06T12:40:42.224Z,35953.445
2023-05-06T12:41:41.435Z,36098.055
2023-05-06T12:42:41.648Z,37603.383
2023-05-06T12:43:41.944Z,42852.215
2023-05-06T12:44:42.145Z,68791.906
2023-05-06T12:45:41.560Z,54713.004
2023-05-06T12:46:42.080Z,42988.961
2023-05-06T12:47:42.270Z,115741.367
2023-05-06T12:48:41.461Z,59686.098
2023-05-06T12:49:41.581Z,41758.086
2023-05-06T12:50:41.826Z,43289.098
2023-05-06T12:51:42.017Z,59313.578